Edson, Wisconsin
Current Conditions -  °F | °C
As of 6:56 AM on Saturday 20 Dec 2014 (Local Time) from KEAU Reporting Station
Overcast Overcast  
Wind Chill: 20°   Ceiling: 2800
Heat Index: 28°   Visibility: 9mi
Dew Point: 21°   Wind: 8mph
Humidity: 75%   Direction: 150°SSE
Pressure: 30.18"   Gusts: NA
Location:  44.9343°N, 91.0261°W
Report Text: KEAU 201256Z 15007KT 9SM OVC028 M02/M06 A3018 RMK AO2 SLP234 T10221061
Loading
Personal Weather Stations






























Interactive Weather Map New forecast layout! Learn more

10-Day Weather Forecast

Advertisements
Track Severe Weather on mobile